| Date | Time | Temp. (oF) | Dew Point (oF) | Rel. Hum. (%) | Press. (in.) | Wind Dir. (deg.) | Wind Speed (mph) | Hourly Rainfall (i n.) |
|
|---|---|---|---|---|---|---|---|---|---|
| 1 | 07/21 | 24:00 | 71 | 65 | 84 | 30.25 | 150 | 0 | 0.00 |
| 2 | 07/20 | 23:00 | 74 | 66 | 78 | 30.29 | 150 | 1 | 0.00 |
| 3 | 07/20 | 22:00 | 75 | 67 | 77 | 30.30 | 150 | 2 | 0.00 |
| 4 | 07/20 | 21:00 | 76 | 67 | 75 | 30.23 | 150 | 2 | 0.00 |
| 5 | 07/20 | 20:00 | 79 | 67 | 69 | 30.23 | 150 | 2 | 0.00 |
| 6 | 07/20 | 19:00 | 80 | 67 | 67 | 30.23 | 150 | 1 | 0.00 |
| 7 | 07/20 | 18:00 | 83 | 68 | 61 | 30.23 | 130 | 2 | 0.00 |
| 8 | 07/20 | 17:00 | 82 | 67 | 61 | 30.24 | 150 | 2 | 0.00 |
| 9 | 07/20 | 16:00 | 82 | 68 | 64 | 30.24 | 150 | 4 | 0.00 |
| 10 | 07/20 | 15:00 | 81 | 67 | 63 | 30.25 | 100 | 0 | 0.00 |
| 11 | 07/20 | 14:00 | 81 | 66 | 62 | 30.25 | 130 | 2 | 0.00 |
| 12 | 07/20 | 13:00 | 77 | 65 | 68 | 30.25 | 350 | 1 | 0.00 |
| 13 | 07/20 | 12:00 | 76 | 66 | 72 | 30.25 | 350 | 0 | 0.00 |
| 14 | 07/20 | 11:00 | 76 | 66 | 73 | 30.25 | 350 | 1 | 0.00 |
| 15 | 07/20 | 10:00 | 76 | 66 | 73 | 30.37 | 350 | 0 | 0.00 |
| 16 | 07/20 | 09:00 | 126 | 74 | 22 | 30.22 | 10 | 4 | 0.00 |
| 17 | 07/20 | 08:00 | 126 | 74 | 22 | 30.20 | 30 | 4 | 0.00 |
| 18 | 07/20 | 07:00 | 126 | 74 | 22 | 30.17 | 330 | 2 | 0.00 |
| 19 | 07/20 | 06:00 | 126 | 74 | 22 | 30.20 | 330 | 0 | 0.00 |
| 20 | 07/20 | 05:00 | 126 | 74 | 22 | 30.16 | 330 | 0 | 0.00 |
| 21 | 07/20 | 04:00 | 126 | 74 | 22 | 30.11 | 330 | 0 | 0.00 |
| 22 | 07/20 | 03:00 | 126 | 74 | 22 | 30.11 | 330 | 0 | 0.00 |
| 23 | 07/20 | 02:00 | 126 | 74 | 22 | 30.11 | 330 | 0 | 0.00 |
| 24 | 07/20 | 01:00 | 126 | 73 | 21 | 30.11 | 330 | 0 | 0.00 |